Time;durP1;ratioP1;P1;durP2;ratioP2;P2;SDS_P1;SDS_P2;PMS_P1;PMS_P2;Temp;Humidity;BMP_temperature;BMP_pressure;BME280_temperature;BME280_humidity;BME280_pressure;Samples;Min_cycle;Max_cycle;Signal;HPM_P1;HPM_P2
2023/03/30 00:01:13;;;;;;;2.95;2.13;;;16.90;1.00;;;;;;5012436;28;20409;-34
2023/03/30 00:03:43;;;;;;;3.10;2.03;;;16.90;1.00;;;;;;5011640;28;20501;-34
2023/03/30 00:06:13;;;;;;;2.38;1.33;;;16.90;1.00;;;;;;5012440;28;20489;-34
2023/03/30 00:08:40;;;;;;;6.30;1.77;;;16.90;1.00;;;;;;5011453;28;20517;-34
2023/03/30 00:11:10;;;;;;;2.70;1.60;;;16.90;1.00;;;;;;5012394;28;20038;-34
2023/03/30 00:13:38;;;;;;;1.75;1.45;;;16.90;1.00;;;;;;5011617;28;20049;-34
2023/03/30 00:16:08;;;;;;;3.63;1.77;;;16.90;1.00;;;;;;5010879;28;20468;-34
2023/03/30 00:18:35;;;;;;;2.67;1.77;;;16.90;1.00;;;;;;5012441;28;20528;-34
2023/03/30 00:21:03;;;;;;;3.65;2.13;;;16.80;1.00;;;;;;5012250;28;20042;-34
2023/03/30 00:23:31;;;;;;;2.45;1.30;;;16.80;1.00;;;;;;5011332;28;20038;-34
2023/03/30 00:25:58;;;;;;;2.55;1.67;;;16.80;1.00;;;;;;5012231;28;20073;-34
2023/03/30 00:28:25;;;;;;;6.90;2.17;;;16.80;1.00;;;;;;5012028;28;20041;-34
2023/03/30 00:30:53;;;;;;;5.95;2.10;;;16.80;1.00;;;;;;5010907;28;20046;-34
2023/03/30 00:33:20;;;;;;;2.17;1.30;;;16.80;1.00;;;;;;5010125;28;20046;-34
2023/03/30 00:36:03;;;;;;;2.92;1.67;;;16.80;1.00;;;;;;5012189;28;20108;-34
2023/03/30 00:38:30;;;;;;;2.75;1.83;;;16.80;1.00;;;;;;5010766;28;20052;-34
2023/03/30 00:40:59;;;;;;;2.55;1.60;;;16.80;1.00;;;;;;5010658;28;20046;-33
2023/03/30 00:43:27;;;;;;;1.80;1.30;;;16.80;1.00;;;;;;5009851;28;20042;-33
2023/03/30 00:45:57;;;;;;;3.45;1.75;;;16.80;1.00;;;;;;5012058;28;20070;-33
2023/03/30 00:48:33;;;;;;;4.28;2.15;;;16.70;1.00;;;;;;5010585;28;20061;-34
2023/03/30 00:51:10;;;;;;;3.88;1.65;;;16.80;1.00;;;;;;5010644;28;20100;-34
2023/03/30 00:53:40;;;;;;;5.55;1.88;;;16.70;1.00;;;;;;5009871;28;20061;-34
2023/03/30 00:56:11;;;;;;;7.15;2.17;;;16.70;1.00;;;;;;5011933;28;20069;-33
2023/03/30 00:58:40;;;;;;;2.65;2.08;;;16.70;1.00;;;;;;5011736;28;20409;-33
2023/03/30 01:01:10;;;;;;;4.70;2.50;;;16.70;1.00;;;;;;5011578;28;20050;-34
2023/03/30 01:03:49;;;;;;;3.13;1.70;;;16.70;1.00;;;;;;5009763;28;20046;-34
2023/03/30 01:06:28;;;;;;;3.90;1.77;;;16.70;1.00;;;;;;5011843;28;20544;-33
2023/03/30 01:08:59;;;;;;;3.03;1.80;;;16.70;1.00;;;;;;5010484;28;20041;-33
2023/03/30 01:11:26;;;;;;;4.30;1.98;;;16.70;1.00;;;;;;5010624;28;20060;-34
2023/03/30 01:14:00;;;;;;;4.32;2.08;;;16.70;1.00;;;;;;5011128;28;20105;-34
2023/03/30 01:17:00;;;;;;;5.90;2.22;;;16.70;1.00;;;;;;5012259;28;20300;-34
2023/03/30 01:20:11;;;;;;;2.88;1.50;;;16.70;1.00;;;;;;5011690;28;20577;-34
2023/03/30 01:23:03;;;;;;;3.00;1.55;;;16.70;1.00;;;;;;5013179;28;20045;-34
2023/03/30 01:25:51;;;;;;;4.50;1.83;;;16.60;1.00;;;;;;5015233;28;20062;-33
2023/03/30 01:28:37;;;;;;;4.53;1.80;;;16.60;1.00;;;;;;5013888;28;20084;-34
2023/03/30 01:31:24;;;;;;;3.65;1.70;;;16.60;1.00;;;;;;5015148;28;20409;-33
2023/03/30 01:34:30;;;;;;;3.15;1.77;;;16.60;1.00;;;;;;5014260;28;20500;-33
2023/03/30 01:37:21;;;;;;;2.78;1.75;;;16.60;1.00;;;;;;4957347;28;20098;-33
2023/03/30 01:39:56;;;;;;;4.38;1.85;;;16.60;1.00;;;;;;4973617;28;20407;-33
2023/03/30 01:42:33;;;;;;;3.22;1.85;;;16.60;1.00;;;;;;4995442;28;20054;-33
2023/03/30 01:45:12;;;;;;;6.07;2.22;;;16.60;1.00;;;;;;5013279;28;20096;-33
2023/03/30 01:47:57;;;;;;;3.38;1.40;;;16.60;1.00;;;;;;5013487;28;20096;-33
2023/03/30 01:50:28;;;;;;;4.07;1.77;;;16.50;1.00;;;;;;5014702;28;20041;-33
2023/03/30 01:53:21;;;;;;;4.63;1.65;;;16.50;1.00;;;;;;5012647;28;20554;-33
2023/03/30 01:56:00;;;;;;;2.67;1.40;;;16.50;1.00;;;;;;4998441;28;20061;-33
2023/03/30 01:58:36;;;;;;;8.48;1.50;;;16.60;1.00;;;;;;5013219;28;20049;-34
2023/03/30 02:01:09;;;;;;;3.35;1.73;;;16.50;1.00;;;;;;5014592;28;20050;-33
2023/03/30 02:03:40;;;;;;;3.20;1.73;;;16.50;1.00;;;;;;5013806;28;20038;-33
2023/03/30 02:06:23;;;;;;;3.20;1.38;;;16.50;1.00;;;;;;5013209;28;20034;-33
2023/03/30 02:08:54;;;;;;;3.38;1.23;;;16.50;1.00;;;;;;5013126;28;20042;-33
2023/03/30 02:11:25;;;;;;;2.25;1.40;;;16.50;1.00;;;;;;5013104;28;20486;-33
2023/03/30 02:13:54;;;;;;;2.53;1.40;;;16.50;1.00;;;;;;5013644;28;20046;-33
2023/03/30 02:16:28;;;;;;;3.88;1.83;;;16.50;1.00;;;;;;5013039;28;20049;-33
2023/03/30 02:18:56;;;;;;;5.05;2.60;;;16.50;1.00;;;;;;5014189;28;20044;-33
2023/03/30 02:21:23;;;;;;;4.20;1.65;;;16.50;1.00;;;;;;5014223;28;20466;-33
2023/03/30 02:23:53;;;;;;;5.53;1.63;;;16.50;1.00;;;;;;5012021;28;20129;-33
2023/03/30 02:26:21;;;;;;;4.68;1.48;;;16.50;1.00;;;;;;5012846;28;20069;-33
2023/03/30 02:28:50;;;;;;;3.10;1.35;;;16.50;1.00;;;;;;5012748;28;20042;-33
2023/03/30 02:31:17;;;;;;;3.55;1.63;;;16.50;1.00;;;;;;5011985;28;20050;-33
2023/03/30 02:33:57;;;;;;;3.45;1.42;;;16.50;1.00;;;;;;5012960;28;20088;-33
2023/03/30 02:36:52;;;;;;;2.33;1.15;;;16.40;1.00;;;;;;5012682;28;20050;-33
2023/03/30 02:40:07;;;;;;;5.22;1.75;;;16.40;1.00;;;;;;5013915;28;20405;-33
2023/03/30 02:42:59;;;;;;;5.85;1.95;;;16.40;1.00;;;;;;5012072;28;20054;-33
2023/03/30 02:45:33;;;;;;;6.90;1.45;;;16.40;1.00;;;;;;5013850;28;20041;-33
2023/03/30 02:48:41;;;;;;;4.28;1.70;;;16.40;1.00;;;;;;5012376;28;20104;-33
2023/03/30 02:51:42;;;;;;;4.50;1.73;;;16.40;1.00;;;;;;5012377;28;20387;-33
2023/03/30 02:54:56;;;;;;;3.90;1.85;;;16.40;1.00;;;;;;4997052;28;20054;-33
2023/03/30 02:58:22;;;;;;;7.28;1.77;;;16.40;1.00;;;;;;4990595;28;20050;-33
2023/03/30 03:01:24;;;;;;;2.50;1.07;;;16.40;1.00;;;;;;5012044;28;20104;-33
2023/03/30 03:04:10;;;;;;;6.05;1.60;;;16.40;1.00;;;;;;5011404;28;20050;-33
2023/03/30 03:06:54;;;;;;;3.40;1.27;;;16.40;1.00;;;;;;5012103;28;20046;-33
2023/03/30 03:09:24;;;;;;;7.10;1.38;;;16.40;1.00;;;;;;5011935;28;20096;-33
2023/03/30 03:11:51;;;;;;;6.32;2.50;;;16.40;1.00;;;;;;5012192;28;20041;-33
2023/03/30 03:14:19;;;;;;;3.38;1.67;;;16.40;1.00;;;;;;5011317;28;20046;-33
2023/03/30 03:16:46;;;;;;;7.95;1.70;;;16.40;1.00;;;;;;5011874;28;20050;-33
2023/03/30 03:19:15;;;;;;;3.45;1.38;;;16.40;1.00;;;;;;5011762;28;20137;-33
2023/03/30 03:21:44;;;;;;;4.85;1.25;;;16.40;1.00;;;;;;5011902;28;20069;-33
2023/03/30 03:24:16;;;;;;;3.47;1.30;;;16.40;1.00;;;;;;5011002;28;20042;-33
2023/03/30 03:27:01;;;;;;;4.22;1.27;;;16.40;1.00;;;;;;5013317;28;20048;-33
2023/03/30 03:29:33;;;;;;;6.57;1.63;;;16.30;1.00;;;;;;5011654;28;20512;-33
2023/03/30 03:32:00;;;;;;;4.68;1.30;;;16.30;1.00;;;;;;5011500;28;20046;-33
2023/03/30 03:34:32;;;;;;;6.53;1.88;;;16.30;1.00;;;;;;5010932;28;20456;-33
2023/03/30 03:37:02;;;;;;;2.65;1.23;;;16.30;1.00;;;;;;5011626;28;20488;-33
2023/03/30 03:39:31;;;;;;;5.75;1.45;;;16.30;1.00;;;;;;5011516;28;20065;-33
2023/03/30 03:42:10;;;;;;;4.07;1.42;;;16.40;1.00;;;;;;5011212;28;20084;-33
2023/03/30 03:44:46;;;;;;;4.95;1.40;;;16.30;1.00;;;;;;5010852;28;20046;-33
2023/03/30 03:47:13;;;;;;;3.72;1.85;;;16.30;1.00;;;;;;5011408;28;20064;-33
2023/03/30 03:49:43;;;;;;;5.55;1.45;;;16.30;1.00;;;;;;5011314;28;20137;-33
2023/03/30 03:52:09;;;;;;;4.32;2.00;;;16.30;1.00;;;;;;5011101;28;20046;-33
2023/03/30 03:54:36;;;;;;;5.72;1.20;;;16.30;1.00;;;;;;5010641;28;20104;-33
2023/03/30 03:57:04;;;;;;;6.07;1.27;;;16.30;1.00;;;;;;5012520;28;20100;-33
2023/03/30 03:59:31;;;;;;;6.47;1.60;;;16.30;1.00;;;;;;5017638;23;20501;-34
2023/03/30 04:01:58;;;;;;;9.38;2.17;;;16.30;1.00;;;;;;5012461;28;20042;-36
2023/03/30 04:04:25;;;;;;;8.77;2.30;;;16.30;1.00;;;;;;5011684;28;20038;-36
2023/03/30 04:06:55;;;;;;;3.95;1.27;;;16.30;1.00;;;;;;5012419;28;20486;-35
2023/03/30 04:09:22;;;;;;;5.72;1.80;;;16.30;1.00;;;;;;4994690;28;20074;-34
2023/03/30 04:12:21;;;;;;;10.25;2.20;;;16.30;1.00;;;;;;4994354;28;20045;-36
2023/03/30 04:15:18;;;;;;;8.70;2.08;;;16.30;1.00;;;;;;4994501;28;20097;-32
2023/03/30 04:17:58;;;;;;;4.78;1.60;;;16.30;1.00;;;;;;5012184;28;20045;-32
2023/03/30 04:20:43;;;;;;;3.03;0.82;;;16.30;1.00;;;;;;5012244;28;20049;-31
2023/03/30 04:23:32;;;;;;;6.68;2.15;;;16.30;1.00;;;;;;5011639;28;20052;-37
2023/03/30 04:26:17;;;;;;;7.97;1.80;;;16.30;1.00;;;;;;5012398;28;20510;-34
2023/03/30 04:29:09;;;;;;;4.18;1.23;;;16.20;1.00;;;;;;4994392;28;20498;-34
2023/03/30 04:32:01;;;;;;;12.25;2.53;;;16.20;1.00;;;;;;4994427;28;20115;-32
2023/03/30 04:34:58;;;;;;;5.18;1.67;;;16.30;1.00;;;;;;4941325;28;20052;-35
2023/03/30 04:37:43;;;;;;;9.48;2.42;;;16.20;1.00;;;;;;5012165;28;20164;-31
2023/03/30 04:40:28;;;;;;;9.95;2.42;;;16.20;1.00;;;;;;5012225;28;20056;-31
2023/03/30 04:43:07;;;;;;;5.90;1.83;;;16.20;1.00;;;;;;4993818;28;20046;-31
2023/03/30 04:45:46;;;;;;;9.65;2.60;;;16.20;1.00;;;;;;5012150;28;20041;-32
2023/03/30 04:48:39;;;;;;;11.55;1.73;;;16.20;1.00;;;;;;4994213;28;20046;-36
2023/03/30 04:51:18;;;;;;;9.85;1.90;;;16.20;1.00;;;;;;4994328;28;20140;-37
2023/03/30 04:54:03;;;;;;;9.10;1.98;;;16.20;1.00;;;;;;5011720;28;20056;-36
2023/03/30 04:56:39;;;;;;;7.82;1.50;;;16.20;1.00;;;;;;5015453;28;20137;-35
2023/03/30 04:59:26;;;;;;;8.98;2.40;;;16.20;1.00;;;;;;4997950;28;20057;-34
2023/03/30 05:02:13;;;;;;;9.75;2.30;;;16.30;1.00;;;;;;5015626;28;20056;-32
2023/03/30 05:05:07;;;;;;;11.60;2.70;;;16.30;1.00;;;;;;4998121;28;20046;-31
2023/03/30 05:07:58;;;;;;;11.13;2.22;;;16.40;1.00;;;;;;4998184;28;20046;-31
2023/03/30 05:10:37;;;;;;;11.00;1.73;;;16.50;1.00;;;;;;4997832;28;20100;-35
2023/03/30 05:13:27;;;;;;;13.10;2.30;;;16.60;1.00;;;;;;4999366;28;20064;-35
2023/03/30 05:16:21;;;;;;;5.88;2.10;;;16.70;1.00;;;;;;4997933;28;20501;-34
2023/03/30 05:19:14;;;;;;;6.30;1.75;;;16.80;1.00;;;;;;4984723;28;20053;-34
2023/03/30 05:21:58;;;;;;;6.13;2.10;;;16.90;1.00;;;;;;4997530;28;20054;-34
2023/03/30 05:24:25;;;;;;;7.78;2.08;;;17.00;1.00;;;;;;5014389;28;20042;-34
2023/03/30 05:26:52;;;;;;;9.25;1.85;;;17.10;1.00;;;;;;5015019;28;20173;-33
2023/03/30 05:29:31;;;;;;;6.25;1.83;;;17.10;1.00;;;;;;4997435;28;20137;-35
2023/03/30 05:32:21;;;;;;;7.72;1.90;;;17.20;1.00;;;;;;4997027;28;20053;-37
2023/03/30 05:35:07;;;;;;;5.88;2.25;;;17.30;1.00;;;;;;4992104;28;20050;-31
2023/03/30 05:37:43;;;;;;;8.75;2.45;;;17.30;1.00;;;;;;4979967;28;20045;-32
2023/03/30 05:40:39;;;;;;;7.53;1.27;;;17.40;1.00;;;;;;4985893;28;20050;-36
2023/03/30 05:43:15;;;;;;;11.45;2.42;;;17.40;1.00;;;;;;4987456;28;20565;-35
2023/03/30 05:45:51;;;;;;;6.80;1.73;;;17.40;1.00;;;;;;4996708;28;20204;-34
2023/03/30 05:48:39;;;;;;;4.78;1.30;;;17.40;1.00;;;;;;4996937;28;20068;-32
2023/03/30 05:51:28;;;;;;;9.35;2.85;;;17.40;1.00;;;;;;5014309;28;20053;-37
2023/03/30 05:54:14;;;;;;;11.52;2.25;;;17.50;1.00;;;;;;5014313;28;20056;-38
2023/03/30 05:56:48;;;;;;;8.43;2.47;;;17.50;1.00;;;;;;4996898;28;20058;-36
2023/03/30 05:59:34;;;;;;;10.52;2.40;;;17.50;1.00;;;;;;4996377;28;20104;-32
2023/03/30 06:02:01;;;;;;;8.65;1.95;;;17.50;1.00;;;;;;5014560;28;20064;-33
2023/03/30 06:04:28;;;;;;;9.35;2.00;;;17.50;1.00;;;;;;4996130;28;20049;-33
2023/03/30 06:06:55;;;;;;;7.18;2.33;;;17.50;1.00;;;;;;4996644;28;20136;-31
2023/03/30 06:09:22;;;;;;;10.02;2.60;;;17.50;1.00;;;;;;4996780;28;20227;-32
2023/03/30 06:11:50;;;;;;;6.18;1.80;;;17.50;1.00;;;;;;4996672;28;20589;-38
2023/03/30 06:14:21;;;;;;;8.00;2.42;;;17.50;1.00;;;;;;4996009;28;20061;-35
2023/03/30 06:17:11;;;;;;;7.78;2.05;;;17.50;1.00;;;;;;5013898;28;20081;-31
2023/03/30 06:19:38;;;;;;;9.95;2.83;;;17.50;1.00;;;;;;4996496;28;20581;-35
2023/03/30 06:22:05;;;;;;;7.47;2.22;;;17.40;1.00;;;;;;4996381;28;20050;-35
2023/03/30 06:24:44;;;;;;;9.65;2.17;;;17.40;1.00;;;;;;4996016;28;20560;-31
2023/03/30 06:27:12;;;;;;;7.90;2.05;;;17.40;1.00;;;;;;4996259;28;20132;-32
2023/03/30 06:29:40;;;;;;;12.32;2.15;;;17.40;1.00;;;;;;4996351;28;20056;-32
2023/03/30 06:32:07;;;;;;;10.38;2.30;;;17.40;1.00;;;;;;4996187;28;20410;-33
2023/03/30 06:34:54;;;;;;;9.65;2.33;;;17.40;1.00;;;;;;4995945;28;20077;-34
2023/03/30 06:37:24;;;;;;;8.70;2.33;;;17.30;1.00;;;;;;4996086;28;20080;-37
2023/03/30 06:39:51;;;;;;;9.75;2.38;;;17.30;1.00;;;;;;4996198;28;20045;-32
2023/03/30 06:42:18;;;;;;;8.48;2.30;;;17.30;1.00;;;;;;4995698;28;20072;-34
2023/03/30 06:45:12;;;;;;;8.48;2.20;;;17.30;1.00;;;;;;5010456;28;20054;-31
2023/03/30 06:47:40;;;;;;;9.05;2.42;;;17.30;1.00;;;;;;4995922;28;20054;-36
2023/03/30 06:50:08;;;;;;;11.70;2.83;;;17.30;1.00;;;;;;4995891;28;20056;-31
2023/03/30 06:52:57;;;;;;;10.32;3.20;;;17.20;1.00;;;;;;4995195;28;20058;-33
2023/03/30 06:55:27;;;;;;;6.20;1.65;;;17.20;1.00;;;;;;4995918;28;20076;-36
2023/03/30 06:57:54;;;;;;;15.23;3.08;;;17.20;1.00;;;;;;5013281;28;20049;-34
2023/03/30 07:00:21;;;;;;;13.20;3.08;;;17.20;1.00;;;;;;4995644;28;20046;-32
2023/03/30 07:03:07;;;;;;;10.55;2.25;;;17.20;1.00;;;;;;5012920;28;20432;-33
2023/03/30 07:05:42;;;;;;;10.75;2.53;;;17.20;1.00;;;;;;5013303;28;20497;-33
2023/03/30 07:08:17;;;;;;;12.48;3.42;;;17.10;1.00;;;;;;4995683;28;20501;-35
2023/03/30 07:10:50;;;;;;;7.32;1.90;;;17.10;1.00;;;;;;4995477;28;20042;-32
2023/03/30 07:13:18;;;;;;;8.95;2.45;;;17.10;1.00;;;;;;4994758;28;20046;-34
2023/03/30 07:15:46;;;;;;;12.70;2.15;;;17.10;1.00;;;;;;4995665;28;20066;-34
2023/03/30 07:18:13;;;;;;;12.63;3.60;;;17.10;1.00;;;;;;4994959;28;20049;-33
2023/03/30 07:20:43;;;;;;;11.73;3.10;;;17.10;1.00;;;;;;4995246;28;20137;-31
2023/03/30 07:23:13;;;;;;;11.10;2.05;;;17.10;1.00;;;;;;5012234;28;20398;-32
2023/03/30 07:25:40;;;;;;;12.43;2.53;;;17.10;1.00;;;;;;4995255;28;20046;-34
2023/03/30 07:28:15;;;;;;;13.85;3.10;;;17.00;1.00;;;;;;4995386;28;20528;-35
2023/03/30 07:30:43;;;;;;;12.07;3.08;;;17.00;1.00;;;;;;4995160;28;20096;-31
2023/03/30 07:33:11;;;;;;;16.98;2.90;;;17.00;1.00;;;;;;4994342;28;20049;-33
2023/03/30 07:35:45;;;;;;;13.40;3.53;;;17.00;1.00;;;;;;4995148;28;20042;-33
2023/03/30 07:38:16;;;;;;;13.55;2.45;;;17.00;1.00;;;;;;5012770;28;20405;-31
2023/03/30 07:40:49;;;;;;;13.35;3.00;;;17.00;1.00;;;;;;4995052;28;20129;-38
2023/03/30 07:43:20;;;;;;;14.57;3.33;;;17.00;1.00;;;;;;4994100;28;20049;-34
2023/03/30 07:45:47;;;;;;;11.43;2.63;;;17.00;1.00;;;;;;4994851;28;20034;-32
2023/03/30 07:48:21;;;;;;;12.05;2.55;;;16.90;1.00;;;;;;4994865;28;20045;-32
2023/03/30 07:50:49;;;;;;;16.05;3.80;;;16.90;1.00;;;;;;4994845;28;20100;-33
2023/03/30 07:53:16;;;;;;;16.48;3.53;;;16.90;1.00;;;;;;4994092;28;20056;-33
2023/03/30 07:55:46;;;;;;;10.10;2.85;;;16.90;1.00;;;;;;4994570;28;20053;-32
2023/03/30 07:58:22;;;;;;;9.52;2.67;;;16.90;1.00;;;;;;4994680;28;20523;-37
2023/03/30 08:00:50;;;;;;;14.52;3.38;;;16.90;1.00;;;;;;4994717;28;20052;-34
2023/03/30 08:03:49;;;;;;;10.52;2.80;;;16.90;1.00;;;;;;5010951;28;20069;-35
2023/03/30 08:06:16;;;;;;;14.93;2.70;;;16.90;1.00;;;;;;4994729;28;20418;-35
2023/03/30 08:08:46;;;;;;;8.90;3.10;;;16.90;1.00;;;;;;4994527;28;20063;-33
2023/03/30 08:11:15;;;;;;;14.25;2.67;;;16.90;1.00;;;;;;4994581;28;20038;-34
2023/03/30 08:13:43;;;;;;;15.60;2.65;;;16.90;1.00;;;;;;4993725;28;20156;-33
2023/03/30 08:16:10;;;;;;;12.70;2.83;;;16.90;1.00;;;;;;4994534;28;20137;-33
2023/03/30 08:18:40;;;;;;;15.65;3.60;;;16.90;1.00;;;;;;5012221;28;20094;-34
2023/03/30 08:21:07;;;;;;;17.80;3.38;;;16.90;1.00;;;;;;5012111;28;20084;-34
2023/03/30 08:23:33;;;;;;;13.00;3.67;;;16.90;1.00;;;;;;5011285;28;20050;-38
2023/03/30 08:26:00;;;;;;;10.38;2.47;;;16.90;1.00;;;;;;5012102;28;20046;-35
2023/03/30 08:28:27;;;;;;;15.73;3.83;;;16.90;1.00;;;;;;5012292;28;20409;-33
2023/03/30 08:30:55;;;;;;;11.93;3.97;;;16.90;1.00;;;;;;5014428;28;20452;-34
2023/03/30 08:33:23;;;;;;;15.40;2.70;;;16.80;1.00;;;;;;5015374;28;20517;-35
2023/03/30 08:35:51;;;;;;;11.32;2.85;;;16.80;1.00;;;;;;5016056;28;20042;-37
2023/03/30 08:38:18;;;;;;;13.32;2.55;;;16.80;1.00;;;;;;5016021;28;20125;-33
2023/03/30 08:40:47;;;;;;;14.88;3.05;;;16.80;1.00;;;;;;5015963;28;20046;-32
2023/03/30 08:43:20;;;;;;;13.02;2.40;;;16.80;1.00;;;;;;5015289;28;20501;-34
2023/03/30 08:45:47;;;;;;;8.85;2.95;;;16.80;1.00;;;;;;5015982;28;20049;-34
2023/03/30 08:48:23;;;;;;;20.40;4.43;;;16.80;1.00;;;;;;5015852;28;20041;-32
2023/03/30 08:50:58;;;;;;;14.32;3.42;;;16.80;1.00;;;;;;5015854;28;20096;-35
2023/03/30 08:53:28;;;;;;;13.60;3.47;;;16.80;1.00;;;;;;5015179;28;20041;-36
2023/03/30 08:56:06;;;;;;;14.90;3.33;;;16.80;1.00;;;;;;5015837;28;20042;-33
2023/03/30 08:58:44;;;;;;;14.48;2.85;;;16.80;1.00;;;;;;5015670;28;20120;-31
2023/03/30 09:01:24;;;;;;;15.15;3.42;;;16.80;1.00;;;;;;4998243;28;20106;-35
2023/03/30 09:04:15;;;;;;;12.15;3.58;;;16.80;1.00;;;;;;5014787;28;20038;-35
2023/03/30 09:07:09;;;;;;;12.88;2.90;;;16.80;1.00;;;;;;5015599;28;20240;-37
2023/03/30 09:09:45;;;;;;;11.32;3.33;;;16.80;1.00;;;;;;5007329;28;20053;-36
2023/03/30 09:12:36;;;;;;;14.02;4.28;;;16.70;1.00;;;;;;5014695;28;20413;-33
2023/03/30 09:15:14;;;;;;;15.88;3.50;;;16.70;1.00;;;;;;5015469;28;20505;-33
2023/03/30 09:18:18;;;;;;;17.63;3.85;;;16.70;1.00;;;;;;5015278;28;20534;-31
2023/03/30 09:20:49;;;;;;;12.90;2.58;;;16.70;1.00;;;;;;5015310;28;20502;-32
2023/03/30 09:23:17;;;;;;;13.05;3.05;;;16.70;1.00;;;;;;5014596;28;20564;-33
2023/03/30 09:25:49;;;;;;;20.15;3.67;;;16.70;1.00;;;;;;5015023;28;20034;-33
2023/03/30 09:28:23;;;;;;;15.45;2.92;;;16.70;1.00;;;;;;5015197;28;20076;-33
2023/03/30 09:31:00;;;;;;;13.50;4.07;;;16.70;1.00;;;;;;5015133;28;20088;-32
2023/03/30 09:33:55;;;;;;;16.45;3.95;;;16.70;1.00;;;;;;5014436;28;20048;-34
2023/03/30 09:36:42;;;;;;;18.98;3.60;;;16.70;1.00;;;;;;5014910;28;20521;-32
2023/03/30 09:39:17;;;;;;;15.05;3.65;;;16.70;1.00;;;;;;5015076;28;20045;-39
2023/03/30 09:42:06;;;;;;;19.27;4.13;;;16.70;1.00;;;;;;5014470;28;20489;-34
2023/03/30 09:44:43;;;;;;;15.68;3.53;;;16.70;1.00;;;;;;5014027;28;20104;-36
2023/03/30 09:47:25;;;;;;;12.43;2.65;;;16.70;1.00;;;;;;5014848;28;20050;-34
2023/03/30 09:50:00;;;;;;;16.15;4.15;;;16.70;1.00;;;;;;5014863;28;20089;-36
2023/03/30 09:52:31;;;;;;;16.38;3.88;;;16.70;1.00;;;;;;5014291;28;20042;-37
2023/03/30 09:55:21;;;;;;;12.18;3.47;;;16.70;1.00;;;;;;5014357;28;20053;-32
2023/03/30 09:57:52;;;;;;;15.02;3.00;;;16.70;1.00;;;;;;4997185;28;20148;-35
2023/03/30 10:00:26;;;;;;;17.83;3.63;;;16.70;1.00;;;;;;5054997;23;20048;-36
2023/03/30 10:02:58;;;;;;;15.23;3.65;;;16.70;1.00;;;;;;5073077;28;20044;-36
2023/03/30 10:05:26;;;;;;;16.20;3.75;;;16.70;1.00;;;;;;5074074;28;20044;-36
2023/03/30 10:07:56;;;;;;;17.33;4.07;;;16.70;1.00;;;;;;5074041;28;20044;-36
2023/03/30 10:10:25;;;;;;;15.55;3.70;;;16.60;1.00;;;;;;5074113;28;20045;-36
2023/03/30 10:13:21;;;;;;;15.48;3.72;;;16.60;1.00;;;;;;5073213;28;20455;-37
2023/03/30 10:15:51;;;;;;;14.80;3.75;;;16.60;1.00;;;;;;5073655;28;20485;-36
2023/03/30 10:18:26;;;;;;;19.73;4.32;;;16.60;1.00;;;;;;5056169;28;20055;-36
2023/03/30 10:21:06;;;;;;;19.58;3.33;;;16.60;1.00;;;;;;5073865;28;20131;-36
2023/03/30 10:23:38;;;;;;;17.58;3.20;;;16.60;1.00;;;;;;5073288;28;20040;-37
2023/03/30 10:26:20;;;;;;;14.43;3.25;;;16.60;1.00;;;;;;5073695;28;20068;-36
2023/03/30 10:28:56;;;;;;;17.95;4.18;;;16.60;1.00;;;;;;5073842;28;20090;-41
2023/03/30 10:31:26;;;;;;;20.92;4.28;;;16.60;1.00;;;;;;5073751;28;20043;-36
2023/03/30 10:33:56;;;;;;;19.30;4.50;;;16.60;1.00;;;;;;5072892;28;20492;-36
2023/03/30 10:36:36;;;;;;;19.63;4.57;;;16.60;1.00;;;;;;5073531;28;20036;-37
2023/03/30 10:39:29;;;;;;;18.65;3.00;;;16.60;1.00;;;;;;5073572;28;20071;-37
2023/03/30 10:42:00;;;;;;;15.15;3.30;;;16.60;1.00;;;;;;5073601;28;20047;-37
2023/03/30 10:44:46;;;;;;;19.20;4.20;;;16.60;1.00;;;;;;5072672;28;20041;-37
2023/03/30 10:47:36;;;;;;;15.98;2.85;;;16.60;1.00;;;;;;5073357;28;20040;-37
2023/03/30 10:50:34;;;;;;;17.95;3.38;;;16.60;1.00;;;;;;5073321;28;20388;-37
2023/03/30 10:53:13;;;;;;;16.90;3.83;;;16.60;1.00;;;;;;5071734;28;20041;-37
2023/03/30 10:56:16;;;;;;;16.13;3.95;;;16.60;1.00;;;;;;5073250;28;20045;-37
2023/03/30 10:59:16;;;;;;;18.27;3.75;;;16.60;1.00;;;;;;5073254;28;20044;-37
2023/03/30 11:01:52;;;;;;;16.92;3.08;;;16.60;1.00;;;;;;5072670;28;20066;-37
2023/03/30 11:04:42;;;;;;;11.82;2.95;;;16.60;1.00;;;;;;5072543;28;20048;-37
2023/03/30 11:07:29;;;;;;;16.02;2.95;;;16.70;1.00;;;;;;5072832;28;20041;-37
2023/03/30 11:10:15;;;;;;;21.70;4.78;;;16.70;1.00;;;;;;5072772;28;20044;-37
2023/03/30 11:12:51;;;;;;;15.70;3.00;;;16.70;1.00;;;;;;5072091;28;20037;-37
2023/03/30 11:15:30;;;;;;;14.80;3.60;;;16.70;1.00;;;;;;5072941;28;20450;-37
2023/03/30 11:18:06;;;;;;;15.23;3.50;;;16.70;1.00;;;;;;5073164;28;20049;-36
2023/03/30 11:20:51;;;;;;;18.95;3.60;;;16.70;1.00;;;;;;5072624;28;20053;-37
2023/03/30 11:23:46;;;;;;;13.93;3.85;;;16.70;1.00;;;;;;5072159;28;20044;-37
2023/03/30 11:26:21;;;;;;;18.13;4.50;;;16.70;1.00;;;;;;5072506;28;20484;-37
2023/03/30 11:28:53;;;;;;;17.65;4.22;;;16.70;1.00;;;;;;5072549;28;20044;-37
2023/03/30 11:31:29;;;;;;;12.60;3.97;;;16.70;1.00;;;;;;5072374;28;20119;-37
2023/03/30 11:34:13;;;;;;;17.67;3.75;;;16.70;1.00;;;;;;5071852;28;20040;-37
2023/03/30 11:37:14;;;;;;;15.13;4.43;;;16.70;1.00;;;;;;5072532;28;20048;-37
2023/03/30 11:39:50;;;;;;;18.23;4.88;;;16.70;1.00;;;;;;5072501;28;20045;-37
2023/03/30 11:42:25;;;;;;;16.20;3.80;;;16.70;1.00;;;;;;5072207;28;20123;-37
2023/03/30 11:44:54;;;;;;;22.90;4.03;;;16.70;1.00;;;;;;5071888;28;20131;-36
2023/03/30 11:47:43;;;;;;;18.80;4.35;;;16.70;1.00;;;;;;5053982;28;20488;-37
2023/03/30 11:50:24;;;;;;;14.20;3.00;;;16.70;1.00;;;;;;5072162;28;20041;-36
2023/03/30 11:52:56;;;;;;;18.33;3.13;;;16.80;1.00;;;;;;5071443;28;20051;-36
2023/03/30 11:55:48;;;;;;;24.30;5.13;;;16.80;1.00;;;;;;5072271;28;20087;-37
2023/03/30 11:58:34;;;;;;;20.05;4.28;;;16.70;1.00;;;;;;5072224;28;20278;-37
2023/03/30 12:01:27;;;;;;;20.98;4.28;;;16.70;1.00;;;;;;5071909;28;20052;-37
2023/03/30 12:04:13;;;;;;;15.30;4.93;;;16.70;1.00;;;;;;5071234;28;20041;-37
2023/03/30 12:06:54;;;;;;;19.55;4.13;;;16.70;1.00;;;;;;5071729;28;20048;-36
2023/03/30 12:09:34;;;;;;;14.73;4.13;;;16.70;1.00;;;;;;5072057;28;20044;-37
2023/03/30 12:12:16;;;;;;;13.98;3.60;;;16.80;1.00;;;;;;5072020;28;20055;-36
2023/03/30 12:15:12;;;;;;;20.25;3.65;;;16.80;1.00;;;;;;5071445;28;20052;-36
2023/03/30 12:17:53;;;;;;;17.20;3.72;;;16.80;1.00;;;;;;5071839;28;20063;-36
2023/03/30 12:20:42;;;;;;;19.85;3.83;;;16.80;1.00;;;;;;5071870;28;20059;-36
2023/03/30 12:23:25;;;;;;;20.88;4.40;;;16.80;1.00;;;;;;5071016;28;20102;-36
2023/03/30 12:26:21;;;;;;;19.27;6.20;;;16.80;1.00;;;;;;5071848;28;20040;-37
2023/03/30 12:28:57;;;;;;;20.83;4.85;;;16.80;1.00;;;;;;5071848;28;20090;-36
2023/03/30 12:31:57;;;;;;;22.67;5.13;;;16.80;1.00;;;;;;5071746;28;20048;-36
2023/03/30 12:34:32;;;;;;;19.90;4.85;;;16.80;1.00;;;;;;5071173;28;20044;-37
2023/03/30 12:37:34;;;;;;;14.95;4.57;;;16.80;1.00;;;;;;5071768;28;20044;-37
2023/03/30 12:40:07;;;;;;;14.80;4.32;;;16.80;1.00;;;;;;4970581;28;20073;-36
2023/03/30 12:42:44;;;;;;;15.52;4.00;;;16.80;1.00;;;;;;5055759;28;20063;-36
2023/03/30 12:45:20;;;;;;;18.63;4.93;;;16.80;1.00;;;;;;5071691;28;20033;-36
2023/03/30 12:48:03;;;;;;;19.55;3.92;;;16.80;1.00;;;;;;5071457;28;20044;-36
2023/03/30 12:50:44;;;;;;;12.20;3.60;;;16.80;1.00;;;;;;5071574;28;20036;-36
2023/03/30 12:53:31;;;;;;;17.92;4.40;;;16.80;1.00;;;;;;5070735;28;20041;-37
2023/03/30 12:56:16;;;;;;;23.15;5.60;;;16.80;1.00;;;;;;5021112;28;20388;-36
2023/03/30 12:59:15;;;;;;;21.73;4.28;;;16.80;1.00;;;;;;5071487;28;20047;-36
2023/03/30 13:02:06;;;;;;;22.90;3.97;;;16.80;1.00;;;;;;5058898;28;20059;-36
2023/03/30 13:04:38;;;;;;;16.67;4.22;;;16.80;1.00;;;;;;5070697;28;20033;-36
2023/03/30 13:07:21;;;;;;;17.83;4.88;;;16.80;1.00;;;;;;5071305;28;20128;-37
2023/03/30 13:09:58;;;;;;;22.73;4.20;;;16.80;1.00;;;;;;5071466;28;20040;-37
2023/03/30 13:12:31;;;;;;;13.85;4.93;;;16.80;1.00;;;;;;5070970;28;20045;-37
2023/03/30 13:15:15;;;;;;;22.52;4.65;;;16.80;1.00;;;;;;5070723;28;20506;-37
2023/03/30 13:18:07;;;;;;;19.17;4.55;;;16.80;1.00;;;;;;5074518;28;20170;-36
2023/03/30 13:20:56;;;;;;;23.45;4.65;;;16.80;1.00;;;;;;5075051;28;20105;-36
2023/03/30 13:23:30;;;;;;;16.48;3.63;;;16.80;1.00;;;;;;5073643;28;20113;-37
2023/03/30 13:26:24;;;;;;;16.90;4.45;;;16.80;1.00;;;;;;5074834;28;20044;-37
2023/03/30 13:29:14;;;;;;;24.55;4.00;;;16.80;1.00;;;;;;5074787;28;20032;-37
2023/03/30 13:31:44;;;;;;;14.68;4.10;;;16.80;1.00;;;;;;5074581;28;20044;-36
2023/03/30 13:34:22;;;;;;;17.40;4.28;;;16.80;1.00;;;;;;5074100;28;20131;-37
2023/03/30 13:37:33;;;;;;;24.02;4.25;;;16.80;1.00;;;;;;5074721;28;20143;-37
2023/03/30 13:40:23;;;;;;;21.83;4.95;;;16.80;1.00;;;;;;4973421;28;20055;-37
2023/03/30 13:43:22;;;;;;;16.75;4.82;;;16.80;1.00;;;;;;5073913;28;20412;-37
2023/03/30 13:45:58;;;;;;;20.42;4.45;;;16.80;1.00;;;;;;5074548;28;20045;-36
2023/03/30 13:48:44;;;;;;;17.02;3.92;;;16.80;1.00;;;;;;5074598;28;20036;-37